Time;durP1;ratioP1;P1;durP2;ratioP2;P2;SDS_P1;SDS_P2;PMS_P1;PMS_P2;Temp;Humidity;BMP_temperature;BMP_pressure;BME280_temperature;BME280_humidity;BME280_pressure;Samples;Min_cycle;Max_cycle;Signal;HPM_P1;HPM_P2
2023/07/11 00:01:42;;;;;;;10.65;5.95;;;20.80;99.90;;;;;;5053825;28;20029;-73
2023/07/11 00:04:08;;;;;;;13.35;6.10;;;20.70;99.90;;;;;;5053323;28;20033;-72
2023/07/11 00:06:33;;;;;;;8.57;5.35;;;20.70;99.90;;;;;;5053897;28;20021;-72
2023/07/11 00:08:59;;;;;;;7.55;5.82;;;20.70;99.90;;;;;;5055707;28;20536;-72
2023/07/11 00:11:25;;;;;;;9.45;5.13;;;20.60;99.90;;;;;;5058164;28;20051;-74
2023/07/11 00:13:51;;;;;;;9.70;5.95;;;20.60;99.90;;;;;;5057963;28;20031;-75
2023/07/11 00:16:17;;;;;;;15.52;5.90;;;20.60;99.90;;;;;;5058081;28;20025;-74
2023/07/11 00:18:44;;;;;;;7.55;6.25;;;20.50;99.90;;;;;;5039656;28;20108;-75
2023/07/11 00:21:10;;;;;;;8.93;6.00;;;20.50;99.90;;;;;;5039354;28;20052;-74
2023/07/11 00:23:35;;;;;;;8.20;5.40;;;20.50;99.90;;;;;;5057709;28;20033;-74
2023/07/11 00:26:01;;;;;;;11.15;5.78;;;20.40;99.90;;;;;;5057946;28;20040;-74
2023/07/11 00:28:27;;;;;;;10.07;5.82;;;20.40;99.90;;;;;;5057743;28;20480;-74
2023/07/11 00:30:53;;;;;;;11.23;6.28;;;20.40;99.90;;;;;;5057541;28;20078;-74
2023/07/11 00:33:18;;;;;;;10.35;5.93;;;20.40;99.90;;;;;;5039432;28;20040;-74
2023/07/11 00:35:46;;;;;;;9.55;5.20;;;20.40;99.90;;;;;;5056993;28;20029;-74
2023/07/11 00:38:15;;;;;;;8.75;5.93;;;20.40;99.90;;;;;;5057627;28;20083;-74
2023/07/11 00:40:42;;;;;;;6.85;5.30;;;20.50;99.90;;;;;;5056864;28;20385;-74
2023/07/11 00:43:13;;;;;;;7.47;5.30;;;20.50;99.90;;;;;;5057136;28;20037;-74
2023/07/11 00:46:06;;;;;;;10.52;5.97;;;20.50;99.90;;;;;;5057253;28;20052;-74
2023/07/11 00:48:34;;;;;;;9.65;5.00;;;20.50;99.90;;;;;;5057076;28;20086;-74
2023/07/11 00:51:00;;;;;;;7.68;5.65;;;20.50;99.90;;;;;;5057200;28;20045;-74
2023/07/11 00:53:28;;;;;;;6.97;5.25;;;20.50;99.90;;;;;;5056960;28;20106;-74
2023/07/11 00:55:57;;;;;;;8.32;6.03;;;20.50;99.90;;;;;;5056988;28;20028;-74
2023/07/11 00:58:24;;;;;;;7.97;5.38;;;20.40;99.90;;;;;;5056914;28;20055;-74
2023/07/11 01:00:50;;;;;;;11.10;5.82;;;20.40;99.90;;;;;;5056847;28;20033;-74
2023/07/11 01:03:16;;;;;;;9.65;5.40;;;20.40;99.90;;;;;;5056566;28;20028;-74
2023/07/11 01:05:42;;;;;;;7.60;5.63;;;20.30;99.90;;;;;;5056732;28;20475;-74
2023/07/11 01:08:08;;;;;;;6.85;6.18;;;20.20;99.90;;;;;;5056698;28;20036;-74
2023/07/11 01:10:34;;;;;;;12.65;5.55;;;20.20;99.90;;;;;;5038725;28;20061;-74
2023/07/11 01:13:02;;;;;;;15.75;6.05;;;20.20;99.90;;;;;;5056543;28;20061;-74
2023/07/11 01:15:28;;;;;;;10.93;7.70;;;20.20;99.90;;;;;;5056677;28;20025;-74
2023/07/11 01:17:54;;;;;;;8.18;6.32;;;20.20;99.90;;;;;;5056541;28;20124;-74
2023/07/11 01:20:22;;;;;;;14.52;6.03;;;20.20;99.90;;;;;;5055776;28;20033;-74
2023/07/11 01:22:51;;;;;;;12.55;7.20;;;20.20;99.90;;;;;;5038569;28;20036;-74
2023/07/11 01:25:17;;;;;;;11.95;6.00;;;20.20;99.90;;;;;;5056404;28;20033;-74
2023/07/11 01:27:46;;;;;;;9.32;5.65;;;20.10;99.90;;;;;;5056379;28;20028;-74
2023/07/11 01:30:15;;;;;;;11.68;6.30;;;20.10;99.90;;;;;;5056419;28;20021;-74
2023/07/11 01:32:41;;;;;;;11.73;5.85;;;20.00;99.90;;;;;;5056526;28;20124;-74
2023/07/11 01:35:07;;;;;;;9.73;6.00;;;19.90;99.90;;;;;;5056267;28;20122;-74
2023/07/11 01:37:33;;;;;;;7.93;5.95;;;19.90;99.90;;;;;;5038305;28;20073;-74
2023/07/11 01:39:58;;;;;;;10.07;6.07;;;19.80;99.90;;;;;;5056127;28;20346;-74
2023/07/11 01:42:26;;;;;;;8.20;6.22;;;19.80;99.90;;;;;;5055813;28;20480;-74
2023/07/11 01:44:52;;;;;;;9.18;6.35;;;19.70;99.90;;;;;;5038061;28;20025;-73
2023/07/11 01:47:17;;;;;;;11.77;7.13;;;19.70;99.90;;;;;;5055996;28;20032;-74
2023/07/11 01:49:43;;;;;;;9.80;6.13;;;19.70;99.90;;;;;;5038091;28;20021;-73
2023/07/11 01:52:16;;;;;;;9.27;5.95;;;19.70;99.90;;;;;;5055382;28;20098;-74
2023/07/11 01:54:42;;;;;;;7.28;6.40;;;19.60;99.90;;;;;;5055598;28;20112;-74
2023/07/11 01:57:08;;;;;;;8.27;6.15;;;19.60;99.90;;;;;;5037947;28;20052;-74
2023/07/11 01:59:34;;;;;;;13.45;7.35;;;19.50;99.90;;;;;;5055751;28;20408;-74
2023/07/11 02:02:00;;;;;;;11.68;6.90;;;19.40;99.90;;;;;;5055745;28;20037;-74
2023/07/11 02:04:26;;;;;;;9.50;6.97;;;19.30;99.90;;;;;;5055688;28;20376;-74
2023/07/11 02:06:52;;;;;;;9.68;6.93;;;19.30;99.90;;;;;;5055603;28;20067;-74
2023/07/11 02:09:20;;;;;;;9.38;7.10;;;19.40;99.90;;;;;;5055848;28;20082;-76
2023/07/11 02:11:46;;;;;;;8.25;6.45;;;19.40;99.90;;;;;;5055165;28;20037;-74
2023/07/11 02:14:14;;;;;;;7.28;6.55;;;19.30;99.90;;;;;;5055961;28;20465;-74
2023/07/11 02:16:44;;;;;;;10.50;6.90;;;19.30;99.90;;;;;;5055245;28;20078;-74
2023/07/11 02:19:13;;;;;;;8.57;6.60;;;19.20;99.90;;;;;;5055433;28;20021;-74
2023/07/11 02:21:40;;;;;;;9.48;7.55;;;19.20;99.90;;;;;;5055553;28;20071;-75
2023/07/11 02:24:07;;;;;;;13.02;7.03;;;19.10;99.90;;;;;;5054993;28;20473;-74
2023/07/11 02:26:33;;;;;;;8.77;7.20;;;19.10;99.90;;;;;;5054918;28;20416;-74
2023/07/11 02:28:59;;;;;;;12.70;7.35;;;19.00;99.90;;;;;;5055192;28;20025;-74
2023/07/11 02:31:25;;;;;;;13.65;7.32;;;18.90;99.90;;;;;;5055009;28;20076;-74
2023/07/11 02:33:50;;;;;;;14.07;7.60;;;18.90;99.90;;;;;;5055109;28;20025;-74
2023/07/11 02:36:16;;;;;;;8.18;7.30;;;18.90;99.90;;;;;;5055075;28;20418;-75
2023/07/11 02:38:43;;;;;;;9.77;7.72;;;19.00;99.90;;;;;;5037760;28;20047;-76
2023/07/11 02:41:09;;;;;;;11.68;7.88;;;19.00;99.90;;;;;;5054973;28;20033;-74
2023/07/11 02:43:34;;;;;;;10.75;7.55;;;19.10;99.90;;;;;;5054565;28;20082;-74
2023/07/11 02:46:00;;;;;;;9.07;7.50;;;19.10;99.90;;;;;;5055160;28;20086;-74
2023/07/11 02:48:26;;;;;;;13.40;7.75;;;19.00;99.90;;;;;;5054797;28;20063;-74
2023/07/11 02:50:52;;;;;;;12.95;8.25;;;18.90;99.90;;;;;;5036915;28;20060;-74
2023/07/11 02:53:18;;;;;;;11.23;7.80;;;18.90;99.90;;;;;;5037348;28;20025;-74
2023/07/11 02:55:44;;;;;;;9.02;7.30;;;18.90;99.90;;;;;;5054711;28;20025;-74
2023/07/11 02:58:10;;;;;;;11.70;8.43;;;18.90;99.90;;;;;;5054661;28;20029;-74
2023/07/11 03:00:36;;;;;;;11.55;7.90;;;18.90;99.90;;;;;;5054605;28;20094;-74
2023/07/11 03:03:02;;;;;;;10.00;7.57;;;18.90;99.90;;;;;;5054253;28;20060;-74
2023/07/11 03:05:28;;;;;;;9.43;7.10;;;18.90;99.90;;;;;;5036690;28;20112;-74
2023/07/11 03:07:54;;;;;;;12.63;8.60;;;18.90;99.90;;;;;;5036860;28;20140;-74
2023/07/11 03:10:19;;;;;;;13.85;8.32;;;18.90;99.90;;;;;;5054798;28;20028;-74
2023/07/11 03:12:45;;;;;;;11.65;7.63;;;18.90;99.90;;;;;;5054321;28;20456;-74
2023/07/11 03:15:11;;;;;;;11.65;8.10;;;18.90;99.90;;;;;;5054289;28;20024;-74
2023/07/11 03:17:36;;;;;;;10.15;8.38;;;18.90;99.90;;;;;;5036399;28;20032;-74
2023/07/11 03:20:02;;;;;;;10.23;8.27;;;18.80;99.90;;;;;;5054255;28;20029;-74
2023/07/11 03:22:29;;;;;;;13.45;7.88;;;18.80;99.90;;;;;;5054156;28;20086;-74
2023/07/11 03:24:54;;;;;;;10.95;8.32;;;18.80;99.90;;;;;;5053760;28;20067;-74
2023/07/11 03:27:20;;;;;;;11.98;8.15;;;18.80;99.90;;;;;;5053711;28;20025;-74
2023/07/11 03:29:46;;;;;;;11.65;8.38;;;18.80;99.90;;;;;;5054395;28;20524;-74
2023/07/11 03:32:12;;;;;;;12.30;8.02;;;18.80;99.90;;;;;;5053968;28;20393;-74
2023/07/11 03:34:37;;;;;;;13.88;8.25;;;18.80;99.90;;;;;;5054081;28;20024;-74
2023/07/11 03:37:03;;;;;;;14.50;7.93;;;18.80;99.90;;;;;;5054012;28;20067;-74
2023/07/11 03:39:29;;;;;;;13.02;8.70;;;18.80;99.90;;;;;;5036063;28;20048;-74
2023/07/11 03:41:55;;;;;;;20.90;10.05;;;18.70;99.90;;;;;;5053961;28;20112;-74
2023/07/11 03:44:20;;;;;;;12.88;8.15;;;18.70;99.90;;;;;;5053140;28;20040;-74
2023/07/11 03:46:46;;;;;;;10.00;7.97;;;18.70;99.90;;;;;;5036159;28;20056;-71
2023/07/11 03:49:12;;;;;;;10.63;8.20;;;;;;;;;;5053756;28;20398;-71
2023/07/11 03:51:38;;;;;;;15.23;8.95;;;18.70;99.90;;;;;;5053216;28;20077;-74
2023/07/11 03:54:03;;;;;;;11.43;8.63;;;18.70;99.90;;;;;;5053748;28;20032;-74
2023/07/11 03:56:29;;;;;;;12.27;8.50;;;18.80;99.90;;;;;;5053663;28;20403;-74
2023/07/11 03:58:55;;;;;;;13.52;8.43;;;18.80;99.90;;;;;;5035746;28;20040;-74
2023/07/11 04:01:21;;;;;;;11.15;8.40;;;18.80;99.90;;;;;;5035747;28;20032;-74
2023/07/11 04:03:47;;;;;;;12.55;8.35;;;18.80;99.90;;;;;;5053822;28;20492;-74
2023/07/11 04:06:13;;;;;;;12.88;8.07;;;18.90;99.90;;;;;;5035568;28;20029;-73
2023/07/11 04:08:39;;;;;;;14.25;8.57;;;19.00;99.90;;;;;;5036007;28;20445;-74
2023/07/11 04:11:04;;;;;;;12.13;8.30;;;19.00;99.90;;;;;;5035591;28;20055;-74
2023/07/11 04:13:30;;;;;;;11.23;7.88;;;19.00;99.90;;;;;;5053603;28;20100;-71
2023/07/11 04:15:56;;;;;;;12.65;8.77;;;19.00;99.90;;;;;;5035578;28;20078;-74
2023/07/11 04:18:21;;;;;;;12.85;8.32;;;19.10;99.90;;;;;;5035639;28;20082;-74
2023/07/11 04:20:47;;;;;;;13.57;8.32;;;19.20;99.90;;;;;;5053433;28;20035;-74
2023/07/11 04:23:16;;;;;;;10.20;7.63;;;19.20;99.90;;;;;;5053374;28;20028;-74
2023/07/11 04:25:42;;;;;;;10.73;8.15;;;19.30;99.90;;;;;;5035487;28;20070;-72
2023/07/11 04:28:07;;;;;;;11.55;8.02;;;19.30;99.90;;;;;;5053364;28;20112;-72
2023/07/11 04:30:33;;;;;;;10.02;7.35;;;19.40;99.90;;;;;;5053057;28;20029;-72
2023/07/11 04:32:59;;;;;;;23.98;9.52;;;19.40;99.90;;;;;;5053268;28;20175;-72
2023/07/11 04:35:25;;;;;;;11.88;7.90;;;19.50;99.90;;;;;;5053530;28;20033;-72
2023/07/11 04:37:50;;;;;;;15.07;8.43;;;19.60;99.90;;;;;;5035366;28;20062;-72
2023/07/11 04:40:17;;;;;;;11.27;7.70;;;19.70;99.90;;;;;;5053182;28;20102;-72
2023/07/11 04:42:42;;;;;;;10.65;7.78;;;19.80;99.90;;;;;;5035297;28;20025;-72
2023/07/11 04:45:09;;;;;;;14.88;7.47;;;19.90;99.90;;;;;;5053133;28;20104;-72
2023/07/11 04:47:35;;;;;;;18.92;7.85;;;19.90;99.90;;;;;;5053154;28;20369;-72
2023/07/11 04:50:02;;;;;;;17.65;7.20;;;20.00;99.90;;;;;;5053161;28;20078;-72
2023/07/11 04:52:28;;;;;;;19.73;7.72;;;20.10;99.90;;;;;;5064819;28;20549;-72
2023/07/11 04:54:54;;;;;;;11.75;8.15;;;20.20;99.90;;;;;;5074926;28;20146;-72
2023/07/11 04:57:21;;;;;;;10.48;7.28;;;20.20;99.90;;;;;;5076019;28;20135;-72
2023/07/11 04:59:47;;;;;;;10.95;7.20;;;20.30;99.90;;;;;;5075575;28;20133;-72
2023/07/11 05:02:12;;;;;;;15.43;7.40;;;20.50;99.90;;;;;;5075561;28;20396;-72
2023/07/11 05:04:41;;;;;;;8.95;7.22;;;20.50;99.90;;;;;;5076747;28;20067;-72
2023/07/11 05:07:07;;;;;;;13.30;8.13;;;20.60;99.90;;;;;;5076678;28;20031;-72
2023/07/11 05:09:32;;;;;;;12.23;7.45;;;20.80;99.90;;;;;;5076966;28;20033;-75
2023/07/11 05:12:00;;;;;;;9.82;7.28;;;20.80;99.90;;;;;;5076120;28;20468;-75
2023/07/11 05:14:26;;;;;;;11.80;6.85;;;20.90;99.90;;;;;;5075259;28;20021;-64
2023/07/11 05:16:52;;;;;;;10.30;6.95;;;21.00;99.90;;;;;;5076524;28;20036;-67
2023/07/11 05:19:18;;;;;;;10.93;7.32;;;21.10;99.90;;;;;;5075136;28;20032;-67
2023/07/11 05:21:44;;;;;;;10.48;7.22;;;21.20;99.90;;;;;;5076655;28;20115;-67
2023/07/11 05:24:10;;;;;;;12.00;7.10;;;21.20;99.90;;;;;;5076400;28;20107;-68
2023/07/11 05:26:36;;;;;;;9.98;7.20;;;21.40;99.90;;;;;;5074989;28;20135;-67
2023/07/11 05:29:04;;;;;;;11.52;7.10;;;21.50;99.90;;;;;;5076013;28;20388;-67
2023/07/11 05:31:30;;;;;;;11.43;7.07;;;21.70;99.90;;;;;;5076155;28;20033;-68
2023/07/11 05:33:56;;;;;;;13.90;6.90;;;21.80;99.90;;;;;;5074858;28;20032;-67
2023/07/11 05:38:53;;;;;;;11.60;7.03;;;22.20;99.90;;;;;;5076330;28;20043;-68
2023/07/11 05:41:19;;;;;;;9.52;6.38;;;22.30;99.90;;;;;;5076179;28;20101;-67
2023/07/11 05:43:45;;;;;;;11.50;6.70;;;22.50;99.90;;;;;;5075997;28;20060;-66
2023/07/11 05:46:11;;;;;;;13.02;6.82;;;22.70;99.90;;;;;;5076041;28;20047;-68
2023/07/11 05:48:37;;;;;;;7.20;6.47;;;22.80;99.90;;;;;;5076162;28;20538;-65
2023/07/11 05:51:09;;;;;;;12.82;6.78;;;23.10;99.90;;;;;;5074468;28;20091;-65
2023/07/11 05:53:35;;;;;;;10.07;6.40;;;23.20;99.90;;;;;;5075857;28;20159;-65
2023/07/11 05:56:02;;;;;;;10.52;5.85;;;23.40;99.90;;;;;;5075390;28;20072;-65
2023/07/11 05:58:29;;;;;;;11.60;6.32;;;23.40;99.90;;;;;;5074434;28;20112;-65
2023/07/11 06:00:57;;;;;;;7.47;5.85;;;23.50;99.90;;;;;;5074572;28;20029;-65
2023/07/11 06:03:24;;;;;;;13.65;5.47;;;23.60;99.90;;;;;;5074396;28;20112;-58
2023/07/11 06:05:50;;;;;;;8.90;5.82;;;23.60;99.90;;;;;;5074049;28;20098;-58
2023/07/11 06:08:16;;;;;;;8.07;5.65;;;23.70;99.90;;;;;;5075638;28;20031;-58
2023/07/11 06:10:43;;;;;;;8.65;5.70;;;23.80;99.90;;;;;;5075679;28;20439;-58
2023/07/11 06:13:13;;;;;;;12.35;6.00;;;23.80;99.90;;;;;;5075137;28;20037;-58
2023/07/11 06:15:40;;;;;;;9.75;5.97;;;23.90;99.90;;;;;;5075109;28;20026;-58
2023/07/11 06:18:05;;;;;;;11.70;5.75;;;23.90;99.90;;;;;;5075429;28;20033;-58
2023/07/11 06:20:31;;;;;;;6.60;5.45;;;24.20;99.90;;;;;;5075479;28;20025;-58
2023/07/11 06:22:57;;;;;;;6.70;5.05;;;24.40;99.90;;;;;;5075310;28;20036;-58
2023/07/11 06:25:23;;;;;;;7.35;4.93;;;24.60;99.90;;;;;;5075397;28;20138;-58
2023/07/11 06:27:49;;;;;;;8.82;5.40;;;24.90;99.90;;;;;;5074942;28;20029;-59
2023/07/11 06:30:14;;;;;;;7.75;5.15;;;25.20;99.90;;;;;;5075051;28;20056;-59
2023/07/11 06:32:40;;;;;;;7.97;4.57;;;25.40;99.90;;;;;;5073925;28;20034;-61
2023/07/11 06:35:06;;;;;;;7.57;4.90;;;25.60;99.90;;;;;;5073933;28;20123;-58
2023/07/11 06:37:32;;;;;;;5.50;4.20;;;25.90;99.90;;;;;;5075370;28;20024;-59
2023/07/11 06:39:57;;;;;;;9.50;4.75;;;26.20;99.90;;;;;;5074880;28;20423;-59
2023/07/11 06:42:23;;;;;;;5.72;4.90;;;26.40;99.20;;;;;;5074866;28;20083;-59
2023/07/11 06:44:49;;;;;;;7.07;4.22;;;26.60;98.80;;;;;;5074095;28;20039;-59
2023/07/11 06:47:15;;;;;;;9.20;4.70;;;26.80;98.20;;;;;;5074865;28;20075;-59
2023/07/11 06:49:40;;;;;;;8.07;4.90;;;27.10;97.30;;;;;;5074982;28;20387;-58
2023/07/11 06:52:06;;;;;;;7.18;4.38;;;27.40;97.10;;;;;;5061313;28;20053;-59
2023/07/11 06:54:32;;;;;;;6.57;4.80;;;27.70;96.10;;;;;;5054480;28;20491;-59
2023/07/11 06:56:58;;;;;;;7.50;4.90;;;28.10;95.40;;;;;;5036731;28;20025;-59
2023/07/11 06:59:24;;;;;;;4.97;4.50;;;28.30;94.10;;;;;;5054371;28;20025;-59
2023/07/11 07:01:50;;;;;;;6.18;4.00;;;28.40;93.00;;;;;;5054106;28;20029;-60
2023/07/11 07:04:16;;;;;;;6.38;4.82;;;28.40;92.20;;;;;;5054547;28;20029;-59
2023/07/11 07:06:44;;;;;;;6.70;4.47;;;28.50;91.60;;;;;;5054720;28;20079;-59
2023/07/11 07:09:11;;;;;;;5.70;4.28;;;28.80;91.40;;;;;;5054087;28;20029;-59
2023/07/11 07:11:38;;;;;;;18.98;5.18;;;29.00;90.60;;;;;;5036336;28;20044;-59
2023/07/11 07:14:09;;;;;;;5.95;4.47;;;29.20;88.60;;;;;;5054155;28;20411;-59
2023/07/11 07:16:39;;;;;;;6.75;3.97;;;29.20;87.20;;;;;;5036381;28;20079;-59
2023/07/11 07:19:05;;;;;;;5.05;4.15;;;29.20;86.00;;;;;;5053437;28;20029;-59
2023/07/11 07:21:32;;;;;;;5.47;4.00;;;28.80;86.60;;;;;;5036321;28;20116;-59
2023/07/11 07:23:58;;;;;;;6.60;4.35;;;28.80;86.10;;;;;;5036619;28;20060;-60
2023/07/11 07:26:24;;;;;;;4.32;3.70;;;28.90;85.10;;;;;;5054136;28;20079;-59
2023/07/11 07:28:50;;;;;;;8.38;4.28;;;29.10;84.80;;;;;;5053768;28;20024;-59
2023/07/11 07:31:16;;;;;;;5.35;4.32;;;29.50;83.70;;;;;;5054202;28;20021;-59
2023/07/11 07:33:41;;;;;;;5.88;3.75;;;29.80;82.80;;;;;;5054053;28;20052;-59
2023/07/11 07:36:10;;;;;;;8.32;4.07;;;30.10;80.60;;;;;;5053765;28;20021;-73
2023/07/11 07:38:36;;;;;;;6.70;4.07;;;29.70;79.10;;;;;;5053577;28;20427;-74
2023/07/11 07:41:05;;;;;;;7.30;4.00;;;29.70;80.10;;;;;;5036025;28;20063;-73
2023/07/11 07:43:31;;;;;;;6.07;4.32;;;29.90;80.60;;;;;;5035852;28;20035;-67
2023/07/11 07:45:59;;;;;;;9.55;4.72;;;30.00;77.40;;;;;;5053428;28;20388;-67
2023/07/11 07:48:25;;;;;;;5.75;4.30;;;29.90;78.50;;;;;;5035800;28;20029;-67
2023/07/11 07:50:52;;;;;;;6.05;4.38;;;30.00;77.90;;;;;;5035670;28;20045;-68
2023/07/11 07:53:18;;;;;;;7.05;4.75;;;30.00;76.30;;;;;;5035684;28;20036;-68
2023/07/11 07:55:44;;;;;;;4.07;3.67;;;30.00;77.50;;;;;;5053743;28;20021;-68
2023/07/11 07:58:10;;;;;;;4.85;3.60;;;30.50;75.90;;;;;;5053730;28;20059;-68
2023/07/11 08:00:36;;;;;;;5.43;4.20;;;30.50;72.60;;;;;;5053611;28;20025;-70
2023/07/11 08:03:02;;;;;;;5.32;3.75;;;30.90;71.40;;;;;;5035648;28;20040;-69
2023/07/11 08:05:29;;;;;;;4.13;3.75;;;31.20;69.90;;;;;;5053246;28;20021;-69
2023/07/11 08:07:55;;;;;;;7.28;3.65;;;31.50;69.40;;;;;;5053968;28;20036;-69
2023/07/11 08:10:21;;;;;;;4.47;3.63;;;31.10;66.80;;;;;;5053209;28;20029;-69
2023/07/11 08:12:46;;;;;;;5.03;3.70;;;31.00;66.30;;;;;;5053604;28;20032;-67
2023/07/11 08:15:12;;;;;;;4.82;3.42;;;30.90;67.20;;;;;;5035653;28;20064;-67
2023/07/11 08:17:41;;;;;;;4.65;4.18;;;30.90;66.00;;;;;;5035172;28;20487;-68
2023/07/11 08:20:08;;;;;;;4.28;3.90;;;31.00;65.60;;;;;;5035459;28;20425;-68
2023/07/11 08:22:34;;;;;;;3.55;3.15;;;31.10;64.70;;;;;;5035489;28;20387;-67
2023/07/11 08:24:59;;;;;;;5.97;3.78;;;31.50;64.10;;;;;;5035445;28;20025;-68
2023/07/11 08:27:25;;;;;;;5.90;3.45;;;31.60;63.80;;;;;;5053289;28;20480;-67
2023/07/11 08:29:51;;;;;;;5.30;3.60;;;31.80;64.40;;;;;;5055040;28;20028;-68
2023/07/11 08:32:18;;;;;;;4.68;3.67;;;32.20;62.70;;;;;;5057462;28;20055;-68
2023/07/11 08:34:44;;;;;;;5.30;3.80;;;32.10;59.30;;;;;;5039259;28;20078;-68
2023/07/11 08:37:09;;;;;;;3.58;3.25;;;32.10;58.40;;;;;;5039253;28;20524;-68
2023/07/11 08:39:37;;;;;;;6.95;3.85;;;32.10;59.30;;;;;;5039197;28;20029;-68
2023/07/11 08:42:17;;;;;;;5.10;4.13;;;32.20;59.30;;;;;;5057205;28;20044;-69
2023/07/11 08:44:56;;;;;;;5.38;3.80;;;32.20;59.30;;;;;;5039557;28;20036;-68
2023/07/11 08:47:24;;;;;;;;;;;32.10;59.10;;;;;;5057772;28;20052;-67
2023/07/11 08:50:09;;;;;;;3.75;3.45;;;32.30;59.30;;;;;;5057112;28;19904;-69
2023/07/11 08:52:35;;;;;;;5.13;3.88;;;33.00;58.00;;;;;;5058105;28;20053;-69
2023/07/11 08:55:20;;;;;;;5.85;3.90;;;33.00;56.60;;;;;;5056878;28;20021;-68
2023/07/11 08:57:51;;;;;;;6.25;3.53;;;33.00;54.60;;;;;;5057439;28;20052;-68
2023/07/11 09:00:18;;;;;;;3.85;3.35;;;32.90;53.90;;;;;;5057003;28;20056;-68
2023/07/11 09:03:06;;;;;;;4.00;3.60;;;32.20;55.00;;;;;;5056692;28;20033;-68
2023/07/11 09:05:51;;;;;;;10.13;3.75;;;32.40;56.20;;;;;;5039277;28;20020;-68
2023/07/11 09:08:19;;;;;;;4.43;4.03;;;33.20;56.70;;;;;;5057024;28;20499;-69
2023/07/11 09:11:22;;;;;;;5.35;3.78;;;33.70;55.30;;;;;;5056653;28;20029;-69
2023/07/11 09:14:08;;;;;;;6.85;3.80;;;34.20;54.20;;;;;;5056285;28;20120;-69
2023/07/11 09:16:34;;;;;;;4.05;3.65;;;34.40;52.70;;;;;;5037952;28;20056;-69
2023/07/11 09:19:05;;;;;;;3.55;3.20;;;34.70;51.10;;;;;;5038811;28;20055;-69
2023/07/11 09:21:43;;;;;;;4.25;3.50;;;34.60;51.70;;;;;;5056867;28;20112;-69
2023/07/11 09:24:49;;;;;;;5.10;3.78;;;34.40;51.30;;;;;;5039141;28;20372;-69
2023/07/11 09:27:14;;;;;;;5.05;4.03;;;34.30;51.00;;;;;;5038477;28;20025;-69
2023/07/11 09:29:44;;;;;;;3.70;3.40;;;34.40;51.70;;;;;;5056288;28;20350;-70
2023/07/11 09:32:11;;;;;;;5.45;3.50;;;34.40;51.70;;;;;;5038448;28;20037;-70
2023/07/11 09:34:41;;;;;;;4.90;3.88;;;34.80;51.20;;;;;;5056567;28;20040;-70
2023/07/11 09:37:32;;;;;;;5.72;3.67;;;35.20;51.10;;;;;;5055879;28;20592;-69
2023/07/11 09:40:04;;;;;;;4.40;4.00;;;35.50;50.10;;;;;;5038050;28;20025;-68
2023/07/11 09:42:46;;;;;;;4.72;3.70;;;35.60;49.50;;;;;;5055550;28;20037;-70
2023/07/11 09:45:17;;;;;;;5.97;3.80;;;35.60;49.60;;;;;;5056403;28;20025;-70
2023/07/11 09:47:57;;;;;;;3.90;3.60;;;36.10;48.70;;;;;;5056046;28;20021;-69
2023/07/11 09:50:43;;;;;;;7.00;3.95;;;36.40;47.80;;;;;;5055882;28;20021;-70
2023/07/11 09:53:13;;;;;;;4.15;3.75;;;36.80;47.60;;;;;;5055946;28;20047;-70
2023/07/11 09:55:40;;;;;;;3.90;3.50;;;36.90;47.10;;;;;;5055592;28;20385;-70
2023/07/11 09:58:13;;;;;;;3.90;3.60;;;36.80;46.10;;;;;;5055760;28;20029;-70
2023/07/11 10:00:45;;;;;;;6.30;3.72;;;36.50;46.50;;;;;;5055837;28;20021;-71
2023/07/11 10:03:15;;;;;;;4.68;3.90;;;36.60;47.40;;;;;;5037985;28;20029;-70
2023/07/11 10:05:44;;;;;;;8.43;4.18;;;36.70;47.30;;;;;;5055820;28;20060;-70
2023/07/11 10:08:20;;;;;;;4.22;3.72;;;36.10;45.00;;;;;;5055512;28;20025;-70
2023/07/11 10:11:01;;;;;;;5.88;3.80;;;35.60;45.60;;;;;;5055581;28;20048;-69
2023/07/11 10:13:27;;;;;;;5.72;3.92;;;35.10;46.80;;;;;;5037527;28;20039;-70
2023/07/11 10:15:57;;;;;;;3.92;3.65;;;35.20;46.90;;;;;;5055191;28;20025;-69
2023/07/11 10:18:26;;;;;;;5.15;3.80;;;35.50;46.60;;;;;;5055492;28;20079;-69
2023/07/11 10:21:17;;;;;;;4.22;3.80;;;35.70;46.20;;;;;;5055385;28;20031;-69
2023/07/11 10:23:46;;;;;;;4.18;3.78;;;36.50;45.20;;;;;;5055615;28;20112;-70
2023/07/11 10:26:20;;;;;;;4.88;3.55;;;37.00;45.40;;;;;;5055454;28;20033;-69
2023/07/11 10:29:00;;;;;;;3.92;3.58;;;37.50;44.70;;;;;;5055374;28;20039;-70
2023/07/11 10:31:43;;;;;;;4.72;3.78;;;37.60;43.20;;;;;;5037457;28;20087;-70
2023/07/11 10:34:15;;;;;;;5.03;4.50;;;37.30;44.00;;;;;;5055506;28;20029;-69
2023/07/11 10:36:49;;;;;;;4.30;3.90;;;37.10;44.10;;;;;;5037260;28;20120;-69
2023/07/11 10:39:53;;;;;;;4.97;4.07;;;36.90;43.70;;;;;;5055050;28;20100;-70
2023/07/11 10:42:42;;;;;;;4.95;4.10;;;37.00;44.00;;;;;;5048422;28;20040;-70
2023/07/11 10:45:12;;;;;;;5.50;4.13;;;37.00;44.30;;;;;;5054958;28;20032;-70
2023/07/11 10:47:48;;;;;;;5.82;4.03;;;37.20;44.00;;;;;;5036950;28;20029;-70
2023/07/11 10:50:43;;;;;;;4.28;3.88;;;37.30;43.50;;;;;;5054921;28;20029;-70
2023/07/11 10:53:21;;;;;;;4.25;3.90;;;37.00;44.00;;;;;;5054769;28;20082;-70
2023/07/11 10:55:55;;;;;;;5.10;4.10;;;36.90;43.50;;;;;;5037106;28;20349;-70
2023/07/11 10:58:23;;;;;;;4.70;4.30;;;37.00;43.40;;;;;;5054760;28;20029;-70
2023/07/11 11:00:49;;;;;;;;;;;37.00;43.50;;;;;;5037095;28;20362;-70
2023/07/11 11:03:32;;;;;;;4.47;3.58;;;36.70;43.90;;;;;;5036615;28;19908;-63
2023/07/11 11:06:06;;;;;;;5.93;3.83;;;36.50;45.50;;;;;;5054605;28;20025;-73
2023/07/11 11:08:41;;;;;;;4.10;3.70;;;36.20;47.90;;;;;;5036642;28;20032;-74
2023/07/11 11:11:15;;;;;;;4.70;4.30;;;37.00;47.50;;;;;;5054357;28;20036;-73
2023/07/11 11:13:52;;;;;;;5.25;3.80;;;38.40;45.70;;;;;;5054026;28;20435;-71
2023/07/11 11:16:29;;;;;;;5.18;4.25;;;39.00;44.60;;;;;;5054431;28;20025;-73
2023/07/11 11:19:12;;;;;;;4.13;3.83;;;39.20;43.70;;;;;;5054580;28;20107;-73
2023/07/11 11:22:01;;;;;;;4.20;3.90;;;38.70;44.00;;;;;;5053946;28;20099;-72
2023/07/11 11:24:27;;;;;;;6.88;4.55;;;39.20;43.90;;;;;;5054359;28;20342;-72
2023/07/11 11:27:07;;;;;;;8.15;4.55;;;39.40;42.40;;;;;;5054195;28;20032;-72
2023/07/11 11:29:55;;;;;;;4.00;3.70;;;38.90;43.00;;;;;;5054007;28;20519;-72
2023/07/11 11:32:35;;;;;;;4.50;4.20;;;39.30;43.30;;;;;;5053601;28;20060;-73
2023/07/11 11:35:01;;;;;;;4.43;4.03;;;39.60;42.70;;;;;;5035735;28;20029;-73
2023/07/11 11:38:05;;;;;;;6.15;4.45;;;40.00;43.20;;;;;;5036380;28;20021;-75
2023/07/11 11:40:36;;;;;;;6.30;4.72;;;40.20;41.50;;;;;;5051543;28;20041;-73
2023/07/11 11:43:05;;;;;;;4.88;4.38;;;39.90;41.30;;;;;;5036341;28;20029;-74
2023/07/11 11:45:32;;;;;;;4.68;4.28;;;39.50;42.20;;;;;;5053702;28;20059;-69
2023/07/11 11:48:02;;;;;;;4.75;4.25;;;40.20;41.70;;;;;;5035868;28;20494;-68
2023/07/11 11:50:29;;;;;;;4.47;4.07;;;40.30;41.20;;;;;;5053422;28;20402;-68
2023/07/11 11:53:34;;;;;;;4.60;4.10;;;40.40;41.00;;;;;;5073769;28;20052;-70
2023/07/11 11:56:05;;;;;;;5.07;3.97;;;40.80;41.00;;;;;;5073728;28;20460;-70
2023/07/11 11:58:34;;;;;;;4.53;4.13;;;40.40;40.60;;;;;;5073641;28;20107;-70
2023/07/11 12:01:00;;;;;;;4.20;3.90;;;39.80;40.50;;;;;;5073645;28;20020;-70
2023/07/11 12:03:39;;;;;;;5.53;4.45;;;39.80;41.20;;;;;;5073062;28;20040;-70
2023/07/11 12:06:34;;;;;;;5.95;4.22;;;39.40;40.90;;;;;;5073623;28;20090;-70
2023/07/11 12:09:23;;;;;;;6.13;4.95;;;39.50;41.30;;;;;;5055720;28;20064;-69
2023/07/11 12:12:04;;;;;;;4.93;4.43;;;39.90;40.30;;;;;;5073389;28;20074;-78
2023/07/11 12:14:37;;;;;;;4.80;4.30;;;39.40;40.90;;;;;;5073352;28;20451;-78
2023/07/11 12:17:03;;;;;;;5.40;4.32;;;39.40;41.10;;;;;;5073508;28;20132;-74
2023/07/11 12:19:33;;;;;;;4.82;3.90;;;39.70;40.40;;;;;;5073448;28;20025;-74
2023/07/11 12:22:05;;;;;;;4.95;4.28;;;39.50;41.30;;;;;;5073375;28;20024;-71
2023/07/11 12:24:33;;;;;;;5.20;4.50;;;39.60;41.30;;;;;;5073637;28;20452;-71
2023/07/11 12:27:31;;;;;;;5.05;4.38;;;39.50;41.40;;;;;;5073584;28;20078;-71
2023/07/11 12:29:59;;;;;;;4.32;3.90;;;39.50;41.10;;;;;;5073381;28;20028;-70
2023/07/11 12:32:34;;;;;;;4.78;4.38;;;39.50;41.00;;;;;;5073365;28;20033;-64
2023/07/11 12:35:05;;;;;;;5.78;4.40;;;39.70;40.60;;;;;;5055474;28;20058;-73
2023/07/11 12:38:01;;;;;;;4.70;4.22;;;39.50;41.00;;;;;;5073016;28;20362;-75
2023/07/11 12:40:45;;;;;;;4.40;4.00;;;39.40;40.80;;;;;;5055470;28;20025;-75
2023/07/11 12:43:18;;;;;;;4.32;4.00;;;39.20;40.80;;;;;;5074975;28;20431;-75
2023/07/11 12:45:54;;;;;;;6.80;4.63;;;39.00;41.60;;;;;;5055287;28;20063;-78
2023/07/11 12:48:34;;;;;;;4.55;4.22;;;39.40;40.90;;;;;;5073081;28;20025;-76
2023/07/11 12:51:05;;;;;;;5.15;3.90;;;39.50;41.20;;;;;;5055566;28;20572;-78
2023/07/11 12:53:37;;;;;;;4.93;4.50;;;39.70;41.60;;;;;;5073234;28;20120;-82
2023/07/11 12:56:02;;;;;;;4.93;4.50;;;39.80;41.90;;;;;;5073477;28;20025;-82
2023/07/11 12:58:31;;;;;;;6.60;4.57;;;39.40;40.90;;;;;;5071574;28;20468;-83